Time;durP1;ratioP1;P1;durP2;ratioP2;P2;SDS_P1;SDS_P2;PMS_P1;PMS_P2;Temp;Humidity;BMP_temperature;BMP_pressure;BME280_temperature;BME280_humidity;BME280_pressure;Samples;Min_cycle;Max_cycle;Signal;HPM_P1;HPM_P2
2023/02/20 00:01:44;;;;;;;10.73;5.00;;;10.90;99.90;;;;;;5092008;28;20243;-63
2023/02/20 00:04:10;;;;;;;9.50;5.77;;;10.90;99.90;;;;;;5089478;28;20914;-63
2023/02/20 00:06:35;;;;;;;7.27;4.80;;;10.80;99.90;;;;;;5092463;28;20472;-63
2023/02/20 00:09:01;;;;;;;8.27;4.30;;;10.70;99.90;;;;;;5090190;28;20603;-63
2023/02/20 00:11:26;;;;;;;8.57;4.50;;;10.70;99.90;;;;;;5093031;28;20958;-64
2023/02/20 00:13:52;;;;;;;10.23;5.40;;;10.70;99.90;;;;;;5098520;27;20181;-63
2023/02/20 00:16:17;;;;;;;9.20;4.63;;;10.70;99.90;;;;;;5092697;27;21755;-64
2023/02/20 00:18:44;;;;;;;9.97;4.90;;;10.50;99.90;;;;;;5093736;27;20197;-63
2023/02/20 00:21:10;;;;;;;9.70;5.73;;;10.50;99.90;;;;;;5090231;28;20281;-63
2023/02/20 00:23:35;;;;;;;7.73;6.20;;;10.50;99.90;;;;;;5093703;27;20507;-63
2023/02/20 00:26:01;;;;;;;8.67;4.43;;;10.50;99.90;;;;;;5087546;28;20210;-63
2023/02/20 00:28:28;;;;;;;9.93;5.10;;;10.50;99.90;;;;;;5091508;27;20185;-63
2023/02/20 00:30:54;;;;;;;9.63;4.90;;;10.40;99.90;;;;;;5097293;27;20170;-63
2023/02/20 00:33:20;;;;;;;7.90;4.43;;;10.50;99.90;;;;;;5094168;27;21175;-63
2023/02/20 00:35:45;;;;;;;13.13;4.83;;;10.40;99.90;;;;;;5091080;27;20231;-63
2023/02/20 00:38:11;;;;;;;8.53;4.80;;;10.50;99.90;;;;;;5086641;28;20286;-63
2023/02/20 00:40:36;;;;;;;6.90;5.17;;;10.50;99.90;;;;;;5088491;28;20190;-63
2023/02/20 00:43:02;;;;;;;5.73;4.43;;;10.50;99.90;;;;;;5086230;27;20182;-63
2023/02/20 00:45:27;;;;;;;10.00;4.70;;;10.60;99.90;;;;;;5089655;28;20217;-63
2023/02/20 00:47:53;;;;;;;11.70;5.30;;;10.50;99.90;;;;;;5090797;28;20225;-64
2023/02/20 00:50:19;;;;;;;9.70;5.07;;;10.60;99.90;;;;;;5095884;28;20197;-63
2023/02/20 00:52:44;;;;;;;5.13;4.37;;;10.50;99.90;;;;;;5077557;28;20679;-63
2023/02/20 00:55:11;;;;;;;6.63;4.30;;;10.30;99.90;;;;;;5089411;27;20243;-63
2023/02/20 00:57:36;;;;;;;8.67;5.33;;;10.30;99.90;;;;;;5091995;28;20470;-63
2023/02/20 01:00:04;;;;;;;9.43;5.10;;;10.30;99.90;;;;;;5091287;27;20455;-64
2023/02/20 01:02:30;;;;;;;9.43;5.30;;;10.30;99.90;;;;;;5075303;28;20204;-63
2023/02/20 01:04:55;;;;;;;7.43;4.53;;;10.30;99.90;;;;;;5091169;28;20487;-63
2023/02/20 01:07:21;;;;;;;8.00;4.77;;;10.20;99.90;;;;;;5095134;27;20216;-63
2023/02/20 01:09:47;;;;;;;7.27;4.70;;;10.10;99.90;;;;;;5091379;28;20210;-63
2023/02/20 01:12:12;;;;;;;10.90;5.80;;;10.20;99.90;;;;;;5093744;28;20177;-63
2023/02/20 01:14:38;;;;;;;11.33;5.70;;;10.20;99.90;;;;;;5094418;27;20175;-63
2023/02/20 01:17:03;;;;;;;7.60;4.10;;;10.20;99.90;;;;;;5097350;27;20543;-64
2023/02/20 01:19:29;;;;;;;8.87;4.77;;;10.20;99.90;;;;;;5096484;27;20186;-63
2023/02/20 01:21:54;;;;;;;10.10;4.70;;;10.20;99.90;;;;;;5094443;28;20743;-64
2023/02/20 01:24:20;;;;;;;12.23;5.13;;;10.20;99.90;;;;;;5090357;28;20653;-63
2023/02/20 01:26:48;;;;;;;10.37;4.63;;;10.20;99.90;;;;;;5095926;27;20207;-63
2023/02/20 01:29:15;;;;;;;9.93;5.40;;;10.20;99.90;;;;;;5094030;27;20192;-63
2023/02/20 01:31:47;;;;;;;11.70;5.10;;;10.10;99.90;;;;;;5092644;27;20439;-63
2023/02/20 01:34:12;;;;;;;11.87;6.43;;;10.00;99.90;;;;;;5091310;28;22079;-63
2023/02/20 01:36:43;;;;;;;6.93;5.20;;;10.00;99.90;;;;;;5093039;27;20459;-63
2023/02/20 01:39:09;;;;;;;9.10;5.37;;;10.00;99.90;;;;;;5089966;27;20186;-63
2023/02/20 01:41:34;;;;;;;13.93;5.07;;;9.90;99.90;;;;;;5094264;28;20520;-63
2023/02/20 01:44:00;;;;;;;9.30;5.00;;;10.00;99.90;;;;;;5086748;28;20280;-63
2023/02/20 01:46:25;;;;;;;7.97;4.80;;;10.00;99.90;;;;;;5091031;28;20244;-63
2023/02/20 01:49:01;;;;;;;9.73;4.70;;;10.00;99.90;;;;;;5093189;28;20175;-63
2023/02/20 01:51:30;;;;;;;10.70;4.80;;;10.00;99.90;;;;;;5093931;27;20193;-63
2023/02/20 01:53:55;;;;;;;7.10;4.40;;;9.90;99.90;;;;;;5092566;28;20434;-63
2023/02/20 01:56:21;;;;;;;9.30;4.37;;;9.80;99.90;;;;;;5092384;27;20823;-63
2023/02/20 01:58:49;;;;;;;12.67;4.50;;;9.90;99.90;;;;;;5095863;27;20186;-63
2023/02/20 02:01:15;;;;;;;11.00;4.50;;;9.80;99.90;;;;;;5092520;27;20217;-63
2023/02/20 02:03:45;;;;;;;13.03;5.80;;;9.90;99.90;;;;;;5096696;27;21019;-63
2023/02/20 02:06:13;;;;;;;7.20;4.93;;;9.90;99.90;;;;;;5090800;28;20922;-63
2023/02/20 02:08:40;;;;;;;9.53;4.43;;;9.90;99.90;;;;;;5089928;28;20437;-63
2023/02/20 02:11:09;;;;;;;11.43;4.80;;;9.80;99.90;;;;;;5089243;27;20426;-63
2023/02/20 02:13:37;;;;;;;8.90;4.87;;;9.80;99.90;;;;;;5088673;28;20421;-63
2023/02/20 02:16:24;;;;;;;9.53;4.43;;;9.80;99.90;;;;;;5089222;28;20436;-63
2023/02/20 02:19:04;;;;;;;9.17;4.77;;;9.70;99.90;;;;;;5085531;28;21088;-63
2023/02/20 02:21:49;;;;;;;10.93;4.83;;;9.60;99.90;;;;;;5088745;28;20456;-63
2023/02/20 02:24:52;;;;;;;8.60;4.20;;;9.60;99.90;;;;;;5088547;28;20988;-63
2023/02/20 02:27:33;;;;;;;11.23;4.70;;;9.50;99.90;;;;;;5088213;28;20512;-63
2023/02/20 02:30:24;;;;;;;10.33;4.93;;;9.50;99.90;;;;;;5086133;28;20427;-63
2023/02/20 02:33:27;;;;;;;9.77;5.43;;;9.40;99.90;;;;;;5097263;27;20411;-63
2023/02/20 02:36:15;;;;;;;8.43;4.93;;;9.40;99.90;;;;;;5089987;27;20424;-63
2023/02/20 02:38:49;;;;;;;10.47;4.60;;;9.40;99.90;;;;;;5090147;28;20443;-63
2023/02/20 02:41:35;;;;;;;6.90;4.93;;;9.40;99.90;;;;;;5095251;28;20438;-63
2023/02/20 02:44:18;;;;;;;14.00;6.37;;;9.40;99.90;;;;;;5090311;28;20991;-63
2023/02/20 02:47:00;;;;;;;9.03;5.43;;;9.40;99.90;;;;;;5091247;28;21144;-63
2023/02/20 02:49:36;;;;;;;7.97;4.70;;;9.40;99.90;;;;;;5091839;27;20415;-63
2023/02/20 02:52:02;;;;;;;7.77;5.10;;;9.30;99.90;;;;;;5085956;28;20443;-62
2023/02/20 02:54:28;;;;;;;11.03;5.53;;;9.20;99.90;;;;;;5078912;28;20497;-63
2023/02/20 02:57:24;;;;;;;8.10;5.47;;;9.30;99.90;;;;;;5091992;28;20467;-63
2023/02/20 03:00:04;;;;;;;9.97;5.90;;;9.30;99.90;;;;;;5093534;28;20182;-62
2023/02/20 03:02:47;;;;;;;7.53;5.00;;;9.30;99.90;;;;;;5092627;28;20431;-63
2023/02/20 03:05:17;;;;;;;11.20;5.40;;;9.30;99.90;;;;;;5086464;28;20462;-63
2023/02/20 03:07:47;;;;;;;11.10;4.70;;;9.30;99.90;;;;;;5093730;28;20447;-63
2023/02/20 03:10:19;;;;;;;15.73;5.23;;;9.20;99.90;;;;;;5090252;28;20435;-63
2023/02/20 03:12:49;;;;;;;13.10;5.67;;;9.10;99.90;;;;;;5094498;28;20416;-63
2023/02/20 03:15:36;;;;;;;8.40;5.40;;;9.20;99.90;;;;;;5089249;28;20459;-63
2023/02/20 03:18:16;;;;;;;13.53;5.20;;;9.10;99.90;;;;;;5088605;28;20438;-63
2023/02/20 03:20:55;;;;;;;9.57;5.10;;;9.10;99.90;;;;;;5092155;28;20799;-63
2023/02/20 03:23:30;;;;;;;8.97;4.97;;;9.20;99.90;;;;;;5085500;28;20812;-62
2023/02/20 03:26:04;;;;;;;7.63;5.23;;;9.20;99.90;;;;;;5090224;28;20495;-63
2023/02/20 03:28:47;;;;;;;11.17;5.30;;;9.20;99.90;;;;;;5088646;28;20438;-63
2023/02/20 03:31:18;;;;;;;11.03;5.30;;;9.30;99.90;;;;;;5089418;28;20415;-63
2023/02/20 03:45:35;;;;;;;8.17;5.23;;;9.00;99.90;;;;;;5091936;27;20532;-62
2023/02/20 03:48:07;;;;;;;8.20;5.13;;;9.00;99.90;;;;;;5090203;28;20460;-62
2023/02/20 03:50:33;;;;;;;11.63;6.00;;;9.10;99.90;;;;;;5096354;27;20436;-62
2023/02/20 03:52:59;;;;;;;9.10;5.60;;;9.10;99.90;;;;;;5096352;27;20417;-62
2023/02/20 03:55:25;;;;;;;12.40;5.27;;;9.20;99.90;;;;;;5097405;27;20194;-62
2023/02/20 03:57:56;;;;;;;9.40;5.63;;;9.10;99.90;;;;;;5094932;28;20451;-62
2023/02/20 04:00:26;;;;;;;14.23;4.97;;;9.00;99.90;;;;;;5081056;28;20486;-63
2023/02/20 04:02:54;;;;;;;12.40;5.07;;;9.00;99.90;;;;;;5089430;27;20450;-63
2023/02/20 04:05:24;;;;;;;12.20;5.23;;;8.90;99.90;;;;;;5094305;27;22165;-63
2023/02/20 04:07:55;;;;;;;9.00;5.37;;;9.00;99.90;;;;;;5095280;28;20858;-63
2023/02/20 04:10:25;;;;;;;9.03;5.63;;;9.00;99.90;;;;;;5094319;28;20447;-63
2023/02/20 04:12:53;;;;;;;8.60;5.30;;;9.00;99.90;;;;;;5094284;28;20431;-63
2023/02/20 04:15:19;;;;;;;10.83;5.13;;;9.00;99.90;;;;;;5092406;28;20582;-63
2023/02/20 04:18:00;;;;;;;8.37;5.33;;;9.00;99.90;;;;;;5091149;28;20586;-63
2023/02/20 04:20:25;;;;;;;12.30;5.77;;;9.10;99.90;;;;;;5099155;27;20439;-63
2023/02/20 04:22:55;;;;;;;10.23;5.47;;;9.00;99.90;;;;;;5074705;28;20428;-63
2023/02/20 04:25:38;;;;;;;8.13;5.40;;;9.00;99.90;;;;;;5094536;28;20209;-63
2023/02/20 04:28:05;;;;;;;6.47;5.20;;;9.10;99.90;;;;;;5073915;28;20435;-63
2023/02/20 04:30:31;;;;;;;10.07;5.90;;;9.00;99.90;;;;;;5099319;27;20404;-63
2023/02/20 04:32:56;;;;;;;11.20;6.27;;;9.00;99.90;;;;;;5096248;27;20428;-63
2023/02/20 04:35:23;;;;;;;11.97;5.33;;;9.00;99.90;;;;;;5090325;28;20447;-63
2023/02/20 04:37:49;;;;;;;11.97;6.77;;;9.10;99.90;;;;;;5097150;27;20227;-63
2023/02/20 04:40:18;;;;;;;6.80;4.93;;;9.00;99.90;;;;;;5091144;28;20418;-64
2023/02/20 04:42:44;;;;;;;10.90;6.40;;;9.00;99.90;;;;;;5098667;27;20438;-64
2023/02/20 04:45:10;;;;;;;9.37;6.20;;;9.00;99.90;;;;;;5092360;27;21481;-63
2023/02/20 04:47:35;;;;;;;7.87;5.20;;;9.10;99.90;;;;;;5098136;28;20371;-64
2023/02/20 04:50:01;;;;;;;9.17;5.60;;;9.00;99.90;;;;;;5089346;27;20190;-63
2023/02/20 04:52:26;;;;;;;10.43;5.73;;;8.90;99.90;;;;;;5093187;27;20185;-63
2023/02/20 04:54:52;;;;;;;11.07;5.80;;;8.90;99.90;;;;;;5089746;28;20290;-63
2023/02/20 04:57:18;;;;;;;18.30;6.17;;;8.80;99.90;;;;;;5092915;28;20304;-64
2023/02/20 04:59:44;;;;;;;12.27;6.27;;;8.80;99.90;;;;;;5098356;27;20268;-63
2023/02/20 05:02:10;;;;;;;14.53;8.03;;;8.80;99.90;;;;;;5092683;28;21800;-64
2023/02/20 05:04:35;;;;;;;12.50;7.53;;;8.90;99.90;;;;;;5093660;27;20213;-64
2023/02/20 05:07:01;;;;;;;13.47;7.00;;;8.80;99.90;;;;;;5095154;28;20660;-63
2023/02/20 05:09:27;;;;;;;13.50;6.67;;;8.90;99.90;;;;;;5091414;28;20547;-64
2023/02/20 05:11:53;;;;;;;10.03;6.60;;;8.90;99.90;;;;;;5073545;28;20186;-64
2023/02/20 05:14:19;;;;;;;7.60;6.10;;;8.80;99.90;;;;;;5086812;28;20533;-64
2023/02/20 05:16:45;;;;;;;14.33;6.27;;;8.80;99.90;;;;;;5091679;28;20443;-64
2023/02/20 05:19:12;;;;;;;11.33;6.10;;;8.80;99.90;;;;;;5092206;27;20872;-63
2023/02/20 05:24:25;;;;;;;9.30;6.00;;;8.70;99.90;;;;;;5095537;28;20443;-64
2023/02/20 05:26:52;;;;;;;10.20;5.77;;;8.70;99.90;;;;;;5091262;28;20468;-63
2023/02/20 05:29:17;;;;;;;11.43;5.87;;;8.60;99.90;;;;;;5093288;28;20568;-64
2023/02/20 05:31:43;;;;;;;10.00;5.23;;;8.50;99.90;;;;;;5097335;27;20913;-63
2023/02/20 05:34:08;;;;;;;10.93;5.63;;;8.50;99.90;;;;;;5091800;28;20635;-63
2023/02/20 05:36:34;;;;;;;15.63;5.90;;;8.40;99.90;;;;;;5098477;27;20193;-64
2023/02/20 05:38:59;;;;;;;6.87;5.70;;;8.40;99.90;;;;;;5076911;28;20182;-64
2023/02/20 05:41:25;;;;;;;8.77;5.60;;;8.40;99.90;;;;;;5091079;27;20201;-64
2023/02/20 05:43:53;;;;;;;16.13;6.67;;;8.50;99.90;;;;;;5089714;27;20182;-64
2023/02/20 05:46:19;;;;;;;14.40;6.50;;;8.50;99.90;;;;;;5095076;27;20601;-63
2023/02/20 05:48:48;;;;;;;10.20;5.77;;;8.60;99.90;;;;;;5094663;28;20430;-64
2023/02/20 05:51:28;;;;;;;9.70;6.20;;;8.70;99.90;;;;;;5088458;27;20179;-63
2023/02/20 05:53:54;;;;;;;9.10;6.30;;;8.70;99.90;;;;;;5093404;27;20443;-64
2023/02/20 05:56:20;;;;;;;9.70;6.07;;;8.80;99.90;;;;;;5091972;27;20499;-64
2023/02/20 05:58:46;;;;;;;12.83;6.13;;;8.70;99.90;;;;;;5093040;27;20412;-63
2023/02/20 06:01:23;;;;;;;8.87;6.23;;;8.70;99.90;;;;;;5089483;28;20224;-63
2023/02/20 06:03:49;;;;;;;8.70;6.33;;;8.70;99.90;;;;;;5089620;28;20428;-64
2023/02/20 06:06:15;;;;;;;11.30;6.13;;;8.70;99.90;;;;;;5095254;27;20467;-64
2023/02/20 06:08:41;;;;;;;7.90;6.50;;;8.70;99.90;;;;;;5084325;28;21016;-64
2023/02/20 06:11:09;;;;;;;12.73;6.10;;;8.80;99.90;;;;;;5070579;28;20443;-64
2023/02/20 06:13:35;;;;;;;13.43;6.87;;;8.70;99.90;;;;;;5075895;28;20907;-64
2023/02/20 06:16:00;;;;;;;9.70;6.27;;;8.70;99.90;;;;;;5088549;28;20464;-64
2023/02/20 06:18:26;;;;;;;6.90;5.40;;;8.70;99.90;;;;;;5090843;28;20259;-64
2023/02/20 06:20:51;;;;;;;9.83;6.50;;;8.80;99.90;;;;;;5091064;28;20197;-64
2023/02/20 06:23:17;;;;;;;14.47;6.20;;;8.80;99.90;;;;;;5092730;27;20192;-64
2023/02/20 06:25:42;;;;;;;9.23;6.20;;;8.60;99.90;;;;;;5087938;28;20436;-64
2023/02/20 06:28:08;;;;;;;11.23;6.30;;;8.60;99.90;;;;;;5091499;27;20178;-64
2023/02/20 06:30:34;;;;;;;13.60;7.43;;;8.50;99.90;;;;;;5090073;28;20194;-64
2023/02/20 06:32:59;;;;;;;9.17;6.27;;;8.50;99.90;;;;;;5091606;28;20207;-64
2023/02/20 06:35:25;;;;;;;14.40;5.90;;;8.50;99.90;;;;;;5090511;28;20186;-63
2023/02/20 06:37:50;;;;;;;10.03;6.83;;;8.60;99.90;;;;;;5088735;28;20198;-64
2023/02/20 06:40:16;;;;;;;16.40;6.20;;;8.60;99.90;;;;;;5088879;27;20223;-64
2023/02/20 06:42:42;;;;;;;10.10;6.50;;;8.60;99.90;;;;;;5095083;27;20177;-63
2023/02/20 06:45:07;;;;;;;13.53;6.30;;;8.60;99.90;;;;;;5091017;27;20210;-64
2023/02/20 06:47:33;;;;;;;8.30;6.33;;;8.50;99.90;;;;;;5092846;28;20197;-64
2023/02/20 06:49:58;;;;;;;10.47;6.40;;;8.60;99.90;;;;;;5093555;27;20174;-64
2023/02/20 06:52:24;;;;;;;12.80;6.30;;;8.50;99.90;;;;;;5078099;28;20228;-64
2023/02/20 06:54:51;;;;;;;9.70;6.37;;;8.50;99.90;;;;;;5088397;28;20663;-64
2023/02/20 06:57:17;;;;;;;9.40;5.97;;;8.50;99.90;;;;;;5089882;28;20691;-64
2023/02/20 06:59:46;;;;;;;8.53;6.20;;;8.50;99.90;;;;;;5095951;28;20464;-63
2023/02/20 07:02:13;;;;;;;10.20;6.73;;;8.40;99.90;;;;;;5093588;28;20816;-63
2023/02/20 07:04:39;;;;;;;9.67;7.40;;;8.40;99.90;;;;;;5093048;28;20412;-64
2023/02/20 07:07:05;;;;;;;12.83;6.50;;;8.50;99.90;;;;;;5089956;28;20450;-63
2023/02/20 07:09:30;;;;;;;11.30;6.87;;;8.40;99.90;;;;;;5087747;28;20441;-64
2023/02/20 07:11:56;;;;;;;9.93;6.17;;;8.50;99.90;;;;;;5089690;28;20485;-64
2023/02/20 07:14:22;;;;;;;11.90;6.40;;;8.50;99.90;;;;;;5088098;28;20182;-63
2023/02/20 07:16:48;;;;;;;11.00;6.67;;;8.50;99.90;;;;;;5091529;28;20206;-63
2023/02/20 07:19:14;;;;;;;11.20;5.90;;;8.50;99.90;;;;;;5086716;28;20489;-63
2023/02/20 07:21:39;;;;;;;11.37;5.70;;;8.60;99.90;;;;;;5079289;28;20586;-63
2023/02/20 07:24:05;;;;;;;10.30;6.60;;;8.50;99.90;;;;;;5093790;28;20666;-64
2023/02/20 07:26:31;;;;;;;11.63;6.37;;;8.40;99.90;;;;;;5092448;27;20229;-64
2023/02/20 07:28:59;;;;;;;9.50;6.37;;;8.40;99.90;;;;;;5092556;27;20560;-63
2023/02/20 07:31:25;;;;;;;12.77;7.17;;;8.40;99.90;;;;;;5095553;28;20206;-63
2023/02/20 07:33:51;;;;;;;10.60;6.30;;;8.50;99.90;;;;;;5075963;28;20980;-64
2023/02/20 07:36:16;;;;;;;10.57;6.40;;;8.60;99.90;;;;;;5093127;28;20550;-64
2023/02/20 07:38:51;;;;;;;8.03;5.80;;;8.70;99.90;;;;;;5092257;28;20213;-64
2023/02/20 07:41:16;;;;;;;12.90;6.70;;;8.70;99.90;;;;;;5085358;28;21031;-64
2023/02/20 07:43:42;;;;;;;8.43;5.60;;;8.80;99.90;;;;;;5089085;28;20420;-64
2023/02/20 07:46:07;;;;;;;8.20;6.43;;;8.90;99.90;;;;;;5090150;27;20771;-64
2023/02/20 07:48:34;;;;;;;8.00;6.13;;;8.90;99.90;;;;;;5088070;27;20651;-64
2023/02/20 07:50:59;;;;;;;10.30;7.27;;;8.90;99.90;;;;;;5092833;27;20189;-63
2023/02/20 07:53:25;;;;;;;11.13;6.90;;;8.90;99.90;;;;;;5092631;27;20421;-64
2023/02/20 07:55:50;;;;;;;6.87;6.07;;;9.00;99.90;;;;;;5089022;27;20247;-64
2023/02/20 07:58:16;;;;;;;12.17;6.03;;;9.10;99.90;;;;;;5083306;28;20174;-64
2023/02/20 08:00:42;;;;;;;9.17;5.23;;;9.10;99.90;;;;;;5066115;27;20687;-63
2023/02/20 08:03:07;;;;;;;9.33;5.67;;;9.00;99.90;;;;;;5086980;27;20235;-64
2023/02/20 08:05:33;;;;;;;6.93;5.37;;;8.90;99.90;;;;;;5089601;27;20412;-64
2023/02/20 08:07:58;;;;;;;7.53;5.70;;;9.00;99.90;;;;;;5090650;28;20305;-64
2023/02/20 08:10:26;;;;;;;12.03;6.23;;;9.00;99.90;;;;;;5086518;28;20261;-64
2023/02/20 08:12:53;;;;;;;9.20;5.47;;;9.00;99.90;;;;;;5089847;27;20177;-64
2023/02/20 08:15:20;;;;;;;9.63;5.13;;;9.10;99.90;;;;;;5085558;27;20898;-64
2023/02/20 08:17:45;;;;;;;8.97;5.40;;;9.20;99.90;;;;;;5081673;27;21123;-64
2023/02/20 08:20:12;;;;;;;9.50;6.27;;;9.10;99.90;;;;;;5089744;27;20428;-64
2023/02/20 08:22:38;;;;;;;9.40;5.50;;;9.20;99.90;;;;;;5093556;27;20193;-64
2023/02/20 08:25:05;;;;;;;7.97;5.03;;;9.20;99.90;;;;;;5089922;28;20485;-63
2023/02/20 08:27:31;;;;;;;8.07;5.53;;;9.30;99.90;;;;;;5087020;27;20202;-64
2023/02/20 08:29:58;;;;;;;7.40;5.13;;;9.30;99.90;;;;;;5095270;27;20869;-63
2023/02/20 08:32:23;;;;;;;8.30;5.20;;;9.40;99.90;;;;;;5092909;27;20423;-64
2023/02/20 08:34:49;;;;;;;11.60;5.20;;;9.50;99.90;;;;;;5093035;28;20538;-64
2023/02/20 08:37:15;;;;;;;11.73;4.70;;;9.50;99.90;;;;;;5074594;28;20313;-64
2023/02/20 08:39:40;;;;;;;11.27;5.43;;;9.60;99.90;;;;;;5076783;27;20339;-64
2023/02/20 08:42:06;;;;;;;5.87;4.70;;;9.70;99.90;;;;;;5087501;27;20678;-64
2023/02/20 08:44:31;;;;;;;6.73;4.97;;;9.70;99.90;;;;;;5091808;27;20174;-65
2023/02/20 08:46:57;;;;;;;6.93;4.47;;;9.80;99.90;;;;;;5090753;28;20213;-64
2023/02/20 08:49:23;;;;;;;9.80;5.13;;;9.80;99.90;;;;;;5090643;27;20215;-65
2023/02/20 08:51:53;;;;;;;5.60;5.03;;;9.90;99.90;;;;;;5088527;28;20185;-64
2023/02/20 08:54:19;;;;;;;10.80;5.27;;;9.90;99.90;;;;;;5070635;27;20173;-63
2023/02/20 08:56:45;;;;;;;12.80;5.67;;;10.00;99.90;;;;;;5087232;28;20477;-63
2023/02/20 08:59:10;;;;;;;8.87;4.87;;;10.00;99.90;;;;;;5088588;28;20186;-64
2023/02/20 09:01:36;;;;;;;9.90;6.77;;;10.10;99.90;;;;;;5089737;27;20178;-62
2023/02/20 09:04:01;;;;;;;9.03;5.00;;;10.20;99.90;;;;;;5088450;27;20182;-63
2023/02/20 09:06:28;;;;;;;8.60;4.50;;;10.20;99.90;;;;;;5090465;27;21416;-63
2023/02/20 09:08:54;;;;;;;6.20;4.80;;;10.20;99.90;;;;;;5087556;27;20175;-64
2023/02/20 09:11:20;;;;;;;7.50;4.80;;;10.20;99.90;;;;;;5089695;28;20554;-65
2023/02/20 09:13:48;;;;;;;8.93;4.63;;;10.20;99.90;;;;;;5094769;27;21246;-65
2023/02/20 09:16:17;;;;;;;5.70;4.90;;;10.20;99.90;;;;;;5089963;28;20459;-65
2023/02/20 09:18:43;;;;;;;7.67;4.60;;;10.20;99.90;;;;;;5089242;27;20435;-64
2023/02/20 09:21:11;;;;;;;9.13;4.73;;;10.20;99.90;;;;;;5087413;28;20428;-63
2023/02/20 09:23:37;;;;;;;11.10;4.97;;;10.20;99.90;;;;;;5090476;27;20415;-64
2023/02/20 09:26:03;;;;;;;8.97;5.43;;;10.30;99.90;;;;;;5085091;27;20479;-64
2023/02/20 09:28:29;;;;;;;7.10;4.80;;;10.30;99.90;;;;;;5065056;28;20511;-65
2023/02/20 09:30:56;;;;;;;4.73;4.10;;;10.30;99.90;;;;;;5090641;27;20527;-65
2023/02/20 09:33:22;;;;;;;7.80;4.23;;;10.50;99.90;;;;;;5090003;28;20177;-65
2023/02/20 09:35:48;;;;;;;6.57;4.20;;;10.60;99.90;;;;;;5087875;28;20459;-64
2023/02/20 09:38:14;;;;;;;5.93;3.80;;;10.60;99.90;;;;;;5087304;27;20440;-63
2023/02/20 09:40:41;;;;;;;10.17;4.03;;;10.70;99.90;;;;;;5093218;27;20260;-66
2023/02/20 09:43:12;;;;;;;9.13;5.70;;;10.80;99.90;;;;;;5093480;28;20422;-66
2023/02/20 09:45:42;;;;;;;6.73;4.10;;;10.80;99.90;;;;;;5088653;27;20463;-64
2023/02/20 09:48:26;;;;;;;8.83;4.60;;;10.90;99.90;;;;;;5093388;27;20916;-64
2023/02/20 09:50:59;;;;;;;5.00;3.73;;;11.00;99.90;;;;;;5082959;27;20450;-65
2023/02/20 09:53:31;;;;;;;7.83;3.67;;;11.00;99.90;;;;;;5090060;28;20428;-64
2023/02/20 09:55:58;;;;;;;13.90;4.87;;;11.20;99.90;;;;;;5084781;28;20455;-64
2023/02/20 09:58:44;;;;;;;6.80;4.10;;;11.30;99.90;;;;;;5089028;27;20534;-63
2023/02/20 10:01:17;;;;;;;8.90;4.20;;;11.40;99.90;;;;;;5091275;27;20979;-63
2023/02/20 10:04:15;;;;;;;5.73;4.10;;;11.40;99.90;;;;;;5089412;27;20526;-64
2023/02/20 10:06:43;;;;;;;7.27;4.37;;;11.40;99.90;;;;;;5083093;27;20464;-64
2023/02/20 10:09:13;;;;;;;8.07;4.70;;;11.50;99.90;;;;;;5086655;27;20481;-64
2023/02/20 10:12:04;;;;;;;6.43;3.77;;;11.50;99.90;;;;;;5088037;27;20431;-64
2023/02/20 10:14:44;;;;;;;11.23;4.80;;;11.50;99.90;;;;;;5086398;28;20952;-64
2023/02/20 10:17:31;;;;;;;5.77;3.70;;;11.50;99.90;;;;;;5092300;27;20906;-65
2023/02/20 10:20:11;;;;;;;10.53;4.20;;;11.60;99.90;;;;;;5083371;28;20811;-64
2023/02/20 10:22:58;;;;;;;5.63;3.63;;;11.60;99.90;;;;;;5084817;28;20563;-65
2023/02/20 10:25:29;;;;;;;3.50;3.10;;;11.70;99.90;;;;;;5090036;28;20459;-65
2023/02/20 10:28:06;;;;;;;9.60;4.17;;;11.70;99.90;;;;;;5092570;27;20447;-65
2023/02/20 10:30:44;;;;;;;8.93;3.23;;;11.70;99.90;;;;;;5088268;28;20909;-65
2023/02/20 10:33:28;;;;;;;3.70;3.00;;;11.70;99.90;;;;;;5087076;27;20433;-65
2023/02/20 10:36:07;;;;;;;4.53;3.20;;;11.70;99.90;;;;;;5089236;27;20455;-65
2023/02/20 10:38:46;;;;;;;7.00;3.30;;;11.70;99.90;;;;;;5073590;28;20941;-64
2023/02/20 10:41:24;;;;;;;8.43;3.77;;;11.70;99.90;;;;;;5089608;27;20428;-64
2023/02/20 10:44:13;;;;;;;7.00;3.77;;;11.80;99.90;;;;;;5090052;27;20450;-64
2023/02/20 10:47:11;;;;;;;10.03;4.70;;;11.80;99.90;;;;;;5087994;28;20464;-64
2023/02/20 10:49:51;;;;;;;5.83;3.10;;;11.90;99.90;;;;;;5077120;27;20436;-65
2023/02/20 10:52:25;;;;;;;10.00;4.60;;;12.00;99.90;;;;;;5088376;28;20460;-64
2023/02/20 10:55:01;;;;;;;7.87;4.67;;;12.00;99.90;;;;;;5087739;28;20432;-63
2023/02/20 10:57:34;;;;;;;11.30;4.57;;;12.00;99.90;;;;;;5085759;28;20458;-63
2023/02/20 11:00:24;;;;;;;8.63;4.70;;;12.00;99.90;;;;;;5083047;28;21010;-64
2023/02/20 11:02:56;;;;;;;9.30;4.73;;;12.10;99.90;;;;;;5089070;28;20428;-64
2023/02/20 11:05:25;;;;;;;15.53;4.80;;;12.10;99.90;;;;;;5080862;28;20495;-65
2023/02/20 11:07:51;;;;;;;9.27;4.60;;;12.20;99.90;;;;;;5085912;28;20455;-64
2023/02/20 11:10:17;;;;;;;7.03;4.53;;;12.20;99.90;;;;;;5088047;28;20431;-63
2023/02/20 11:12:51;;;;;;;10.57;4.60;;;12.30;99.90;;;;;;5086900;28;20868;-64
2023/02/20 11:15:23;;;;;;;7.20;5.00;;;12.30;99.90;;;;;;5086541;28;20439;-63
2023/02/20 11:17:54;;;;;;;9.57;5.67;;;12.30;99.90;;;;;;5083990;28;20455;-64
2023/02/20 11:20:31;;;;;;;7.07;5.23;;;12.30;99.90;;;;;;5084172;28;20447;-64
2023/02/20 11:22:58;;;;;;;7.53;5.17;;;12.30;99.90;;;;;;5084994;28;20590;-64
2023/02/20 11:25:34;;;;;;;9.27;5.07;;;12.30;99.90;;;;;;5083335;28;21044;-64
2023/02/20 11:28:24;;;;;;;9.63;5.07;;;12.40;99.90;;;;;;5086379;28;20462;-64
2023/02/20 11:31:00;;;;;;;10.30;5.77;;;12.60;99.90;;;;;;5067615;28;20439;-65
2023/02/20 11:33:49;;;;;;;7.53;5.03;;;12.60;99.90;;;;;;5089202;28;20527;-64
2023/02/20 11:36:26;;;;;;;6.87;5.13;;;12.60;99.90;;;;;;5072294;28;20481;-64
2023/02/20 11:39:11;;;;;;;9.93;5.67;;;12.70;99.90;;;;;;5085548;28;20431;-64
2023/02/20 11:41:38;;;;;;;7.67;5.20;;;12.80;99.90;;;;;;5083915;28;20492;-64
2023/02/20 11:44:11;;;;;;;9.83;5.80;;;12.90;99.90;;;;;;5085032;28;20893;-64
2023/02/20 11:46:38;;;;;;;7.53;5.20;;;13.00;99.90;;;;;;5087492;28;20492;-63
2023/02/20 11:49:06;;;;;;;9.47;5.20;;;13.00;99.90;;;;;;5078452;28;20921;-64
2023/02/20 11:51:37;;;;;;;9.90;5.33;;;13.10;99.90;;;;;;5067761;28;21027;-64
2023/02/20 11:54:23;;;;;;;11.63;5.60;;;13.10;99.90;;;;;;5085854;28;20670;-64
2023/02/20 11:56:57;;;;;;;9.53;5.40;;;13.10;99.90;;;;;;5087809;28;20974;-64
2023/02/20 11:59:39;;;;;;;8.90;4.90;;;13.10;99.90;;;;;;5084547;28;20439;-64
2023/02/20 12:02:17;;;;;;;9.87;5.53;;;13.30;99.90;;;;;;5086543;28;20443;-64
2023/02/20 12:05:00;;;;;;;10.17;5.60;;;13.50;99.90;;;;;;5090513;28;21845;-64
2023/02/20 12:07:32;;;;;;;7.33;4.70;;;13.50;99.90;;;;;;5089813;27;21139;-66
2023/02/20 12:10:21;;;;;;;10.97;6.30;;;13.70;99.90;;;;;;5090300;27;20432;-66
2023/02/20 12:12:47;;;;;;;7.17;4.27;;;13.80;99.90;;;;;;5073840;28;20530;-66
2023/02/20 12:15:15;;;;;;;7.70;4.90;;;15.10;99.90;;;;;;5086298;27;20473;-64
2023/02/20 12:17:53;;;;;;;9.33;4.63;;;16.50;99.90;;;;;;5088006;27;20459;-65
2023/02/20 12:20:21;;;;;;;7.70;5.50;;;17.70;99.90;;;;;;5090046;27;22553;-65
2023/02/20 12:23:04;;;;;;;10.40;5.40;;;18.60;99.90;;;;;;5072030;28;20446;-65
2023/02/20 12:25:56;;;;;;;6.73;4.73;;;19.40;99.90;;;;;;5090020;27;20460;-65
2023/02/20 12:28:40;;;;;;;9.10;6.00;;;20.00;99.90;;;;;;5091440;27;20462;-65
2023/02/20 12:31:21;;;;;;;9.77;5.70;;;20.70;99.90;;;;;;5092253;27;20493;-65
2023/02/20 12:34:02;;;;;;;7.00;5.30;;;21.40;99.90;;;;;;5087162;28;20427;-65
2023/02/20 12:36:44;;;;;;;8.03;5.47;;;21.50;99.90;;;;;;5090277;27;20482;-65
2023/02/20 12:39:32;;;;;;;10.37;6.40;;;22.30;99.30;;;;;;5088468;28;20450;-63
2023/02/20 12:42:31;;;;;;;6.40;5.67;;;22.10;95.50;;;;;;5086856;27;20450;-66
2023/02/20 12:45:22;;;;;;;6.70;6.00;;;22.60;95.50;;;;;;5079029;28;20447;-64
2023/02/20 12:48:06;;;;;;;9.93;5.40;;;22.90;92.60;;;;;;5085290;28;20459;-64
2023/02/20 12:50:55;;;;;;;11.10;6.03;;;23.20;91.90;;;;;;5091450;27;20423;-65
2023/02/20 12:53:49;;;;;;;7.80;5.97;;;23.70;91.30;;;;;;5091306;27;20513;-65
2023/02/20 12:56:35;;;;;;;8.07;5.17;;;23.90;88.90;;;;;;5088508;27;20463;-64
2023/02/20 12:59:09;;;;;;;10.50;6.07;;;24.20;86.50;;;;;;5083873;27;20423;-66
2023/02/20 13:01:35;;;;;;;6.80;5.33;;;23.80;84.50;;;;;;5086702;28;20439;-66
2023/02/20 13:04:19;;;;;;;10.53;5.90;;;24.00;83.80;;;;;;5088069;27;20485;-65
2023/02/20 13:07:14;;;;;;;6.43;5.03;;;23.90;81.90;;;;;;5086560;28;21603;-66
2023/02/20 13:10:05;;;;;;;6.80;5.47;;;24.20;80.30;;;;;;5069869;28;20446;-65
2023/02/20 13:12:31;;;;;;;9.47;5.87;;;24.50;77.70;;;;;;5094591;27;20971;-66
2023/02/20 13:15:31;;;;;;;11.00;5.73;;;25.20;76.50;;;;;;5089862;27;22116;-66
2023/02/20 13:18:01;;;;;;;6.03;5.43;;;25.20;75.00;;;;;;5066997;27;20241;-66
2023/02/20 13:20:32;;;;;;;10.30;5.83;;;25.00;75.20;;;;;;5089659;27;20443;-66
2023/02/20 13:23:18;;;;;;;8.27;5.50;;;25.50;73.40;;;;;;5090353;27;20934;-66